Time;durP1;ratioP1;P1;durP2;ratioP2;P2;SDS_P1;SDS_P2;PMS_P1;PMS_P2;Temp;Humidity;BMP_temperature;BMP_pressure;BME280_temperature;BME280_humidity;BME280_pressure;Samples;Min_cycle;Max_cycle;Signal;HPM_P1;HPM_P2
2021/04/18 00:01:41;;;;;;;10.33;9.23;;;5.80;80.00;;;;;;5062966;28;20249;-84
2021/04/18 00:04:08;;;;;;;10.87;9.77;;;5.80;81.10;;;;;;5060109;28;20883;-83
2021/04/18 00:06:35;;;;;;;12.10;10.70;;;5.80;81.10;;;;;;5066145;28;20247;-82
2021/04/18 00:09:04;;;;;;;12.47;11.13;;;5.80;81.00;;;;;;5068455;28;20225;-82
2021/04/18 00:11:31;;;;;;;12.10;10.90;;;5.70;80.90;;;;;;5063615;28;20235;-83
2021/04/18 00:13:57;;;;;;;13.73;12.33;;;5.60;81.20;;;;;;5065067;28;20242;-82
2021/04/18 00:16:24;;;;;;;13.23;11.40;;;5.60;82.10;;;;;;5062805;28;20225;-82
2021/04/18 00:18:50;;;;;;;12.90;11.60;;;5.60;81.80;;;;;;5067807;28;20634;-83
2021/04/18 00:21:16;;;;;;;12.90;11.60;;;5.60;81.50;;;;;;5068031;28;20225;-82
2021/04/18 00:23:44;;;;;;;13.57;12.17;;;5.60;81.70;;;;;;5067968;28;20212;-82
2021/04/18 00:26:10;;;;;;;14.00;11.70;;;5.60;82.40;;;;;;5068344;28;20221;-82
2021/04/18 00:28:36;;;;;;;14.17;12.63;;;5.60;82.30;;;;;;5062878;28;20224;-82
2021/04/18 00:31:03;;;;;;;14.07;12.50;;;5.50;82.00;;;;;;5067806;28;20224;-84
2021/04/18 00:33:29;;;;;;;13.63;12.23;;;5.60;82.20;;;;;;5059815;28;20205;-85
2021/04/18 00:35:55;;;;;;;13.30;12.00;;;5.60;82.00;;;;;;5067953;28;20691;-82
2021/04/18 00:38:22;;;;;;;14.30;12.67;;;5.50;82.70;;;;;;5068927;28;20197;-84
2021/04/18 00:40:49;;;;;;;14.87;12.80;;;5.50;82.50;;;;;;5065887;28;20825;-83
2021/04/18 00:43:16;;;;;;;13.73;12.30;;;5.50;82.60;;;;;;5069395;28;20205;-82
2021/04/18 00:45:45;;;;;;;14.23;12.40;;;5.50;83.10;;;;;;5067372;28;20232;-82
2021/04/18 00:48:12;;;;;;;14.93;12.70;;;5.40;83.50;;;;;;5068881;28;20279;-83
2021/04/18 00:50:40;;;;;;;14.67;13.10;;;5.40;83.60;;;;;;5066459;28;20229;-82
2021/04/18 00:53:07;;;;;;;13.87;12.40;;;5.40;84.00;;;;;;5067528;28;20201;-81
2021/04/18 00:55:35;;;;;;;14.97;13.27;;;5.40;84.40;;;;;;5068296;28;20233;-84
2021/04/18 00:58:03;;;;;;;14.60;13.10;;;5.40;84.50;;;;;;5066584;28;20205;-82
2021/04/18 01:00:30;;;;;;;14.73;13.20;;;5.30;85.60;;;;;;5067542;28;20233;-83
2021/04/18 01:02:56;;;;;;;14.47;12.97;;;5.30;84.70;;;;;;5067883;28;20652;-81
2021/04/18 01:05:23;;;;;;;14.17;12.60;;;5.30;85.00;;;;;;5066809;28;20220;-80
2021/04/18 01:07:49;;;;;;;14.60;12.60;;;5.30;85.80;;;;;;5065888;28;20274;-80
2021/04/18 01:10:17;;;;;;;15.17;13.57;;;5.30;86.00;;;;;;5069292;28;20232;-82
2021/04/18 01:12:43;;;;;;;14.70;13.13;;;5.20;85.90;;;;;;5071549;28;20205;-82
2021/04/18 01:15:13;;;;;;;15.10;13.27;;;5.20;86.40;;;;;;5068209;28;20209;-83
2021/04/18 01:17:39;;;;;;;15.13;12.93;;;5.20;86.70;;;;;;5068234;28;20213;-83
2021/04/18 01:20:08;;;;;;;15.17;12.93;;;5.30;87.10;;;;;;5067773;28;20209;-84
2021/04/18 01:22:35;;;;;;;16.23;12.67;;;5.20;87.00;;;;;;5067778;28;20652;-84
2021/04/18 01:25:03;;;;;;;15.13;13.07;;;5.30;86.70;;;;;;5066390;28;20208;-82
2021/04/18 01:27:30;;;;;;;15.60;13.10;;;5.30;86.60;;;;;;5063443;28;20205;-83
2021/04/18 01:29:56;;;;;;;17.07;13.30;;;5.30;86.70;;;;;;5065844;28;20671;-87
2021/04/18 01:32:23;;;;;;;14.43;12.10;;;5.40;86.80;;;;;;5069868;28;20224;-82
2021/04/18 01:34:50;;;;;;;14.20;12.73;;;5.50;86.70;;;;;;5069281;28;20213;-82
2021/04/18 01:37:19;;;;;;;13.93;12.53;;;5.50;86.40;;;;;;5068555;28;20278;-82
2021/04/18 01:39:47;;;;;;;14.87;13.17;;;5.40;86.60;;;;;;5072528;28;20724;-84
2021/04/18 01:42:14;;;;;;;14.40;12.80;;;5.30;87.10;;;;;;5065832;28;20283;-85
2021/04/18 01:44:40;;;;;;;14.47;12.87;;;5.40;87.40;;;;;;5061271;28;20209;-82
2021/04/18 01:47:07;;;;;;;15.93;13.60;;;5.30;87.80;;;;;;5064956;28;20258;-82
2021/04/18 01:49:33;;;;;;;16.80;13.30;;;5.30;88.90;;;;;;5065650;28;20734;-84
2021/04/18 01:52:00;;;;;;;14.57;13.13;;;5.30;88.00;;;;;;5065891;28;20562;-82
2021/04/18 01:54:26;;;;;;;14.07;12.57;;;5.50;88.60;;;;;;5064995;28;20228;-84
2021/04/18 01:56:53;;;;;;;13.77;12.37;;;5.60;87.10;;;;;;5059157;28;20229;-83
2021/04/18 01:59:19;;;;;;;14.93;13.33;;;5.50;86.60;;;;;;5065193;28;20209;-82
2021/04/18 02:01:46;;;;;;;14.40;12.90;;;5.50;86.70;;;;;;5061311;28;20699;-81
2021/04/18 02:04:20;;;;;;;14.80;13.20;;;5.30;87.00;;;;;;5066923;28;20197;-81
2021/04/18 02:06:47;;;;;;;16.10;14.00;;;5.30;88.10;;;;;;5067413;28;20585;-82
2021/04/18 02:09:13;;;;;;;15.60;13.90;;;5.30;88.80;;;;;;5066678;28;20227;-85
2021/04/18 02:11:41;;;;;;;15.37;13.70;;;5.20;89.10;;;;;;5068595;28;20811;-82
2021/04/18 02:14:08;;;;;;;14.57;13.07;;;5.30;89.10;;;;;;5067469;28;20710;-82
2021/04/18 02:16:35;;;;;;;15.47;13.83;;;5.30;89.10;;;;;;5066988;28;20228;-82
2021/04/18 02:19:01;;;;;;;14.43;13.03;;;5.30;89.10;;;;;;5065561;28;20209;-82
2021/04/18 02:21:27;;;;;;;14.63;13.13;;;5.30;89.10;;;;;;5065797;28;20274;-81
2021/04/18 02:23:54;;;;;;;15.40;13.33;;;5.20;89.10;;;;;;5071382;28;20209;-82
2021/04/18 02:26:20;;;;;;;15.87;13.33;;;5.30;89.20;;;;;;5071603;28;20749;-82
2021/04/18 02:28:46;;;;;;;15.57;13.60;;;5.40;89.20;;;;;;5064625;28;20221;-82
2021/04/18 02:31:13;;;;;;;16.53;14.40;;;5.30;89.10;;;;;;5065266;28;20283;-82
2021/04/18 02:33:40;;;;;;;15.77;13.97;;;5.20;89.10;;;;;;5069446;28;20210;-81
2021/04/18 02:36:07;;;;;;;15.23;13.63;;;5.20;90.00;;;;;;5068260;28;20221;-81
2021/04/18 02:38:33;;;;;;;16.40;14.70;;;5.10;89.80;;;;;;5068983;28;20213;-82
2021/04/18 02:41:00;;;;;;;17.10;15.13;;;5.10;90.20;;;;;;5068185;28;20228;-83
2021/04/18 02:43:26;;;;;;;18.07;14.77;;;5.00;90.20;;;;;;5064589;28;20556;-82
2021/04/18 02:45:52;;;;;;;16.23;14.20;;;5.00;90.70;;;;;;5067406;28;20229;-82
2021/04/18 02:48:20;;;;;;;16.07;14.37;;;4.90;90.80;;;;;;5071114;28;20225;-82
2021/04/18 02:50:46;;;;;;;15.53;13.47;;;5.00;91.00;;;;;;5066734;28;20225;-82
2021/04/18 02:53:12;;;;;;;17.73;14.43;;;5.00;90.90;;;;;;5072355;28;20198;-82
2021/04/18 02:55:38;;;;;;;16.20;14.23;;;5.20;91.00;;;;;;5073281;28;20548;-82
2021/04/18 02:58:05;;;;;;;17.33;15.13;;;5.20;90.50;;;;;;5072649;28;20220;-86
2021/04/18 03:00:32;;;;;;;16.47;14.77;;;5.10;90.60;;;;;;5068324;28;20684;-81
2021/04/18 03:02:58;;;;;;;17.03;15.07;;;5.10;90.90;;;;;;5073018;28;20197;-82
2021/04/18 03:05:25;;;;;;;16.63;14.43;;;5.00;90.90;;;;;;5072924;28;20279;-81
2021/04/18 03:07:51;;;;;;;18.87;14.27;;;5.00;91.00;;;;;;5070595;28;20216;-81
2021/04/18 03:10:18;;;;;;;16.77;14.67;;;5.00;91.10;;;;;;5070570;28;20669;-81
2021/04/18 03:12:44;;;;;;;16.40;14.60;;;5.00;90.90;;;;;;5072285;28;20208;-82
2021/04/18 03:15:11;;;;;;;18.47;15.37;;;5.00;91.00;;;;;;5070575;28;20651;-82
2021/04/18 03:17:38;;;;;;;18.73;14.87;;;4.90;91.10;;;;;;5072736;28;20379;-82
2021/04/18 03:20:05;;;;;;;18.63;15.33;;;4.90;91.70;;;;;;5071871;28;20208;-82
2021/04/18 03:22:32;;;;;;;17.53;15.70;;;4.80;91.30;;;;;;5069547;28;20201;-84
2021/04/18 03:24:59;;;;;;;18.53;16.27;;;4.80;91.50;;;;;;5071251;28;20201;-82
2021/04/18 03:27:25;;;;;;;17.03;15.20;;;4.80;91.70;;;;;;5067084;28;20272;-82
2021/04/18 03:29:52;;;;;;;16.27;14.57;;;4.80;91.80;;;;;;5072919;28;20229;-83
2021/04/18 03:32:18;;;;;;;16.47;14.77;;;4.80;91.90;;;;;;5070382;28;20581;-82
2021/04/18 03:34:44;;;;;;;21.87;15.60;;;4.90;91.90;;;;;;5071643;28;20213;-82
2021/04/18 03:37:10;;;;;;;17.90;16.00;;;4.90;91.80;;;;;;5067202;28;20225;-82
2021/04/18 03:39:37;;;;;;;17.93;15.67;;;4.80;91.80;;;;;;5071726;28;20209;-82
2021/04/18 03:42:04;;;;;;;17.57;15.77;;;4.80;91.70;;;;;;5070131;28;20213;-82
2021/04/18 03:44:30;;;;;;;17.60;15.70;;;4.80;91.70;;;;;;5063089;28;20676;-82
2021/04/18 03:46:56;;;;;;;17.13;15.33;;;4.80;91.80;;;;;;5066839;28;20221;-84
2021/04/18 03:49:23;;;;;;;18.80;15.63;;;4.90;91.80;;;;;;5065261;28;20710;-82
2021/04/18 03:51:49;;;;;;;18.30;16.30;;;4.80;91.80;;;;;;5069742;28;20252;-84
2021/04/18 03:54:15;;;;;;;17.17;15.37;;;4.90;92.20;;;;;;5065612;28;20594;-81
2021/04/18 03:56:42;;;;;;;18.40;16.20;;;5.00;91.80;;;;;;5070063;28;20233;-82
2021/04/18 03:59:09;;;;;;;17.13;14.77;;;5.00;91.80;;;;;;5070943;28;20210;-83
2021/04/18 04:01:35;;;;;;;17.40;15.50;;;5.00;91.80;;;;;;5070191;28;20239;-81
2021/04/18 04:04:01;;;;;;;17.83;15.53;;;5.10;91.70;;;;;;5071031;28;20209;-81
2021/04/18 04:06:28;;;;;;;17.30;15.27;;;5.10;91.60;;;;;;5070767;28;20221;-82
2021/04/18 04:08:54;;;;;;;18.27;16.07;;;5.10;91.50;;;;;;5066733;28;20224;-83
2021/04/18 04:11:20;;;;;;;17.23;15.07;;;5.20;91.50;;;;;;5070382;28;20243;-82
2021/04/18 04:13:47;;;;;;;17.97;15.93;;;5.20;91.60;;;;;;5068962;28;20213;-82
2021/04/18 04:16:13;;;;;;;17.97;16.03;;;5.30;91.30;;;;;;5068280;28;20221;-82
2021/04/18 04:18:40;;;;;;;18.33;15.80;;;5.30;91.00;;;;;;5071241;28;20207;-85
2021/04/18 04:21:06;;;;;;;17.27;15.47;;;5.30;91.10;;;;;;5067034;28;20235;-81
2021/04/18 04:23:34;;;;;;;17.97;16.10;;;5.10;91.20;;;;;;5064407;28;20198;-82
2021/04/18 04:26:00;;;;;;;19.47;16.27;;;5.10;91.40;;;;;;5069607;28;20294;-84
2021/04/18 04:28:26;;;;;;;17.03;15.20;;;5.00;91.80;;;;;;5068540;28;20695;-83
2021/04/18 04:30:53;;;;;;;17.63;15.07;;;5.00;91.90;;;;;;5069030;28;20225;-82
2021/04/18 04:33:20;;;;;;;17.70;15.87;;;5.20;92.00;;;;;;5068096;28;20208;-82
2021/04/18 04:35:46;;;;;;;17.77;15.70;;;5.20;91.70;;;;;;5070489;28;20576;-81
2021/04/18 04:38:12;;;;;;;18.20;15.70;;;5.10;91.80;;;;;;5070395;28;20209;-81
2021/04/18 04:40:38;;;;;;;18.17;16.27;;;5.10;91.70;;;;;;5069715;28;20502;-84
2021/04/18 04:43:05;;;;;;;17.47;15.57;;;5.30;91.90;;;;;;5071314;28;20212;-82
2021/04/18 04:45:31;;;;;;;17.03;15.27;;;5.40;91.70;;;;;;5069333;28;20217;-83
2021/04/18 04:47:58;;;;;;;18.67;16.10;;;5.50;91.50;;;;;;5066814;28;20271;-84
2021/04/18 04:50:24;;;;;;;19.43;17.13;;;5.60;91.20;;;;;;5068977;28;20566;-82
2021/04/18 04:52:51;;;;;;;18.87;16.47;;;5.40;91.10;;;;;;5070351;28;20205;-82
2021/04/18 04:55:17;;;;;;;19.87;16.70;;;5.30;91.30;;;;;;5071598;28;20229;-82
2021/04/18 04:57:43;;;;;;;18.93;16.73;;;5.20;91.70;;;;;;5071781;28;20209;-85
2021/04/18 05:00:10;;;;;;;18.53;16.47;;;5.20;92.20;;;;;;5068721;28;20201;-85
2021/04/18 05:02:36;;;;;;;17.73;15.47;;;5.20;92.10;;;;;;5072961;28;20231;-84
2021/04/18 05:05:05;;;;;;;19.27;16.87;;;5.20;91.90;;;;;;5071901;28;20201;-81
2021/04/18 05:07:31;;;;;;;18.53;16.10;;;5.20;91.90;;;;;;5073447;28;20663;-82
2021/04/18 05:09:57;;;;;;;18.57;16.10;;;5.20;92.20;;;;;;5079623;28;20311;-82
2021/04/18 05:12:24;;;;;;;19.90;15.90;;;5.30;92.40;;;;;;5073793;28;20208;-82
2021/04/18 05:14:50;;;;;;;17.80;15.97;;;5.50;92.20;;;;;;5074893;28;20253;-85
2021/04/18 05:17:16;;;;;;;19.70;16.43;;;5.70;91.40;;;;;;5071940;28;20278;-83
2021/04/18 05:19:42;;;;;;;19.23;16.60;;;5.80;91.10;;;;;;5064900;28;20209;-81
2021/04/18 05:22:09;;;;;;;18.33;16.13;;;5.80;90.80;;;;;;5072987;28;20239;-82
2021/04/18 05:24:36;;;;;;;19.70;16.93;;;5.70;90.60;;;;;;5075122;28;20687;-83
2021/04/18 05:27:02;;;;;;;19.37;16.23;;;5.60;90.90;;;;;;5073872;28;20583;-82
2021/04/18 05:29:28;;;;;;;19.43;17.30;;;5.40;91.00;;;;;;5074581;28;20239;-82
2021/04/18 05:31:55;;;;;;;18.70;16.40;;;5.30;91.60;;;;;;5074143;28;20224;-86
2021/04/18 05:34:22;;;;;;;18.53;16.57;;;5.30;91.50;;;;;;5068260;28;20197;-83
2021/04/18 05:36:48;;;;;;;18.07;15.90;;;5.40;91.80;;;;;;5069550;28;20225;-81
2021/04/18 05:39:15;;;;;;;18.33;16.03;;;5.50;91.60;;;;;;5065996;28;20197;-81
2021/04/18 05:41:42;;;;;;;19.13;16.23;;;5.50;91.60;;;;;;5067803;28;20233;-82
2021/04/18 05:44:13;;;;;;;17.90;15.90;;;5.70;91.00;;;;;;5074515;28;20212;-81
2021/04/18 05:46:39;;;;;;;18.07;16.20;;;5.80;90.90;;;;;;5074125;28;20233;-81
2021/04/18 05:49:06;;;;;;;19.17;16.57;;;5.70;90.70;;;;;;5073196;28;20225;-82
2021/04/18 05:51:32;;;;;;;18.30;16.40;;;5.60;91.00;;;;;;5072844;28;20647;-82
2021/04/18 05:53:58;;;;;;;19.17;17.17;;;5.60;90.80;;;;;;5071206;28;20197;-81
2021/04/18 05:56:25;;;;;;;18.80;16.77;;;5.60;90.90;;;;;;5073498;28;20217;-81
2021/04/18 05:58:51;;;;;;;19.63;16.70;;;5.60;91.20;;;;;;5075911;28;20307;-83
2021/04/18 06:01:22;;;;;;;20.40;16.30;;;5.60;90.80;;;;;;5075050;28;20225;-84
2021/04/18 06:03:48;;;;;;;18.63;16.73;;;5.60;90.70;;;;;;5067519;28;20217;-85
2021/04/18 06:06:15;;;;;;;18.37;16.33;;;5.70;91.10;;;;;;5078615;28;20293;-82
2021/04/18 06:08:41;;;;;;;20.43;17.27;;;5.70;91.00;;;;;;5074635;28;20626;-82
2021/04/18 06:11:07;;;;;;;19.53;17.40;;;5.80;90.90;;;;;;5077966;28;20221;-82
2021/04/18 06:13:34;;;;;;;20.00;17.17;;;5.80;90.60;;;;;;5071913;28;20637;-81
2021/04/18 06:16:01;;;;;;;19.93;17.00;;;5.70;90.80;;;;;;5073036;28;20248;-83
2021/04/18 06:18:27;;;;;;;18.83;16.53;;;5.80;91.20;;;;;;5075758;28;20193;-82
2021/04/18 06:20:54;;;;;;;19.70;17.13;;;5.70;91.10;;;;;;5078686;28;20228;-82
2021/04/18 06:23:22;;;;;;;19.07;16.87;;;5.70;91.00;;;;;;5076870;28;20217;-82
2021/04/18 06:25:48;;;;;;;18.60;16.60;;;5.60;91.20;;;;;;5076469;28;20239;-84
2021/04/18 06:28:14;;;;;;;19.97;16.93;;;5.60;91.00;;;;;;5076071;28;20589;-85
2021/04/18 06:30:42;;;;;;;19.90;16.97;;;5.70;91.30;;;;;;5077023;28;20225;-82
2021/04/18 06:33:08;;;;;;;18.17;16.23;;;5.80;90.80;;;;;;5074879;28;20205;-87
2021/04/18 06:35:34;;;;;;;20.53;17.20;;;5.80;91.10;;;;;;5074202;28;20228;-85
2021/04/18 06:38:01;;;;;;;18.60;15.87;;;5.80;91.30;;;;;;5073646;28;20254;-84
2021/04/18 06:40:27;;;;;;;18.47;16.00;;;6.00;90.80;;;;;;5071128;28;20226;-83
2021/04/18 06:42:54;;;;;;;17.93;16.03;;;6.10;89.70;;;;;;5074886;28;20732;-84
2021/04/18 06:45:21;;;;;;;18.80;15.83;;;6.10;89.70;;;;;;5073165;28;20221;-82
2021/04/18 06:47:48;;;;;;;18.23;16.33;;;6.00;89.60;;;;;;5068662;28;20193;-87
2021/04/18 06:50:15;;;;;;;18.80;15.97;;;6.10;89.70;;;;;;5066982;28;20594;-85
2021/04/18 06:52:41;;;;;;;18.27;15.90;;;6.20;89.70;;;;;;5068333;28;20207;-85
2021/04/18 06:55:09;;;;;;;17.67;15.80;;;6.30;89.80;;;;;;5065518;28;20249;-85
2021/04/18 06:57:36;;;;;;;18.60;15.37;;;6.30;87.70;;;;;;5076033;28;20558;-85
2021/04/18 07:00:03;;;;;;;18.90;16.73;;;6.10;87.40;;;;;;5066945;28;20193;-85
2021/04/18 07:02:32;;;;;;;17.33;15.43;;;6.00;89.30;;;;;;5069758;28;20205;-85
2021/04/18 07:05:03;;;;;;;17.90;16.00;;;6.00;89.60;;;;;;5062028;28;20198;-85
2021/04/18 07:07:31;;;;;;;17.90;15.77;;;6.10;89.20;;;;;;5071313;28;20198;-85
2021/04/18 07:09:58;;;;;;;20.17;16.13;;;6.00;89.60;;;;;;5073370;28;20221;-85
2021/04/18 07:12:27;;;;;;;18.80;16.10;;;6.40;89.80;;;;;;5067152;28;20197;-85
2021/04/18 07:14:53;;;;;;;19.00;15.70;;;6.50;87.00;;;;;;5066949;28;20197;-85
2021/04/18 07:17:19;;;;;;;17.40;15.60;;;6.60;86.30;;;;;;5068089;28;20691;-85
2021/04/18 07:19:49;;;;;;;17.27;15.37;;;6.80;85.50;;;;;;5072295;28;20212;-85
2021/04/18 07:22:17;;;;;;;17.57;15.43;;;7.00;85.50;;;;;;5073695;28;20213;-85
2021/04/18 07:24:52;;;;;;;16.17;14.43;;;7.30;84.20;;;;;;5069589;28;20258;-85
2021/04/18 07:27:19;;;;;;;16.93;14.73;;;7.40;82.00;;;;;;5069131;28;20230;-85
2021/04/18 07:29:53;;;;;;;16.90;15.03;;;7.50;82.00;;;;;;5069471;28;20576;-86
2021/04/18 07:32:21;;;;;;;18.17;16.27;;;7.60;80.60;;;;;;5068843;28;20243;-85
2021/04/18 07:34:48;;;;;;;18.07;15.90;;;7.40;81.70;;;;;;5067256;28;20210;-85
2021/04/18 07:37:17;;;;;;;18.40;15.80;;;7.20;81.80;;;;;;5067114;28;20225;-85
2021/04/18 07:39:52;;;;;;;17.63;15.83;;;7.10;83.20;;;;;;5070004;28;20219;-85
2021/04/18 07:42:29;;;;;;;18.33;16.43;;;7.00;83.60;;;;;;5065854;28;20220;-85
2021/04/18 07:44:57;;;;;;;18.03;15.47;;;7.10;84.90;;;;;;5068865;28;20667;-86
2021/04/18 07:47:24;;;;;;;19.23;17.23;;;7.10;85.20;;;;;;5063482;28;20224;-86
2021/04/18 07:49:51;;;;;;;18.87;16.87;;;7.00;84.40;;;;;;5071056;28;20230;-89
2021/04/18 07:52:19;;;;;;;18.80;16.80;;;6.80;84.50;;;;;;5067855;28;20691;-85
2021/04/18 07:54:46;;;;;;;17.73;15.20;;;6.90;85.80;;;;;;5072917;28;20220;-85
2021/04/18 07:57:13;;;;;;;19.23;16.47;;;7.10;85.20;;;;;;5069554;28;20236;-85
2021/04/18 07:59:39;;;;;;;17.77;15.87;;;7.40;84.30;;;;;;5062799;28;20201;-86
2021/04/18 08:02:07;;;;;;;18.10;16.20;;;7.60;82.20;;;;;;5064655;28;20237;-84
2021/04/18 08:04:34;;;;;;;17.63;15.67;;;7.50;82.10;;;;;;5060164;28;20205;-83
2021/04/18 08:07:02;;;;;;;19.07;16.23;;;7.50;81.50;;;;;;5064485;28;20224;-84
2021/04/18 08:09:29;;;;;;;18.03;16.00;;;7.50;82.00;;;;;;5063992;28;20205;-82
2021/04/18 08:12:13;;;;;;;18.53;16.60;;;7.60;81.70;;;;;;5068473;28;20233;-83
2021/04/18 08:14:44;;;;;;;17.13;15.37;;;7.40;80.80;;;;;;5064013;28;20297;-84
2021/04/18 08:17:12;;;;;;;18.27;16.33;;;7.30;81.90;;;;;;5061186;28;20222;-83
2021/04/18 08:19:39;;;;;;;17.60;15.57;;;7.60;83.50;;;;;;5065685;28;20209;-84
2021/04/18 08:22:05;;;;;;;18.60;15.40;;;7.90;81.20;;;;;;5067291;28;20691;-84
2021/04/18 08:24:37;;;;;;;16.67;14.95;;;8.10;78.80;;;;;;5077909;28;20259;-86
2021/04/18 08:27:06;;;;;;;16.60;14.85;;;8.20;76.90;;;;;;5072717;28;20246;-86
2021/04/18 08:29:34;;;;;;;16.83;15.02;;;8.40;75.10;;;;;;5074006;28;20217;-85
2021/04/18 08:32:10;;;;;;;16.48;14.77;;;8.40;76.70;;;;;;5074328;28;20246;-86
2021/04/18 08:34:39;;;;;;;16.00;14.40;;;8.60;76.00;;;;;;5064427;28;20205;-85
2021/04/18 08:37:17;;;;;;;17.42;14.95;;;8.70;76.40;;;;;;5067457;28;20225;-85
2021/04/18 08:40:03;;;;;;;17.92;15.85;;;8.80;73.70;;;;;;5072730;28;20213;-85
2021/04/18 08:42:33;;;;;;;18.08;15.82;;;8.60;73.50;;;;;;5074480;28;20232;-85
2021/04/18 08:45:00;;;;;;;19.13;16.58;;;8.20;74.10;;;;;;5082030;28;20250;-85
2021/04/18 08:47:29;;;;;;;21.05;17.38;;;8.10;75.20;;;;;;5077805;28;20257;-87
2021/04/18 08:49:57;;;;;;;19.45;17.15;;;8.20;77.40;;;;;;5073526;28;20245;-86
2021/04/18 08:52:25;;;;;;;18.95;16.95;;;8.00;76.60;;;;;;5072382;28;20233;-83
2021/04/18 08:54:54;;;;;;;18.60;16.48;;;7.80;76.40;;;;;;5073403;28;20215;-83
2021/04/18 08:57:23;;;;;;;18.83;16.83;;;7.70;76.80;;;;;;5077029;28;20217;-83
2021/04/18 09:00:00;;;;;;;19.50;17.42;;;7.60;76.70;;;;;;5078428;28;20208;-83
2021/04/18 09:02:28;;;;;;;19.37;17.20;;;7.60;77.80;;;;;;5077620;28;20221;-83
2021/04/18 09:04:57;;;;;;;20.15;18.05;;;7.60;78.20;;;;;;5077518;28;20229;-85
2021/04/18 09:07:26;;;;;;;19.40;17.40;;;7.50;78.50;;;;;;5070974;28;20236;-84
2021/04/18 09:09:57;;;;;;;19.00;16.73;;;7.50;78.90;;;;;;5069776;28;20270;-85
2021/04/18 09:12:25;;;;;;;19.47;17.47;;;7.60;79.10;;;;;;5062861;28;20224;-87
2021/04/18 09:14:52;;;;;;;18.83;16.63;;;7.60;78.80;;;;;;5064933;28;20311;-89
2021/04/18 09:17:21;;;;;;;19.93;17.53;;;7.60;78.80;;;;;;5068177;28;20247;-86
2021/04/18 09:19:49;;;;;;;21.03;18.13;;;7.60;78.70;;;;;;5067430;28;20802;-85
2021/04/18 09:22:18;;;;;;;21.17;18.67;;;7.60;79.20;;;;;;5066514;28;20594;-86
2021/04/18 09:24:55;;;;;;;21.47;19.17;;;7.60;79.10;;;;;;5066224;28;20193;-87
2021/04/18 09:27:25;;;;;;;20.63;18.03;;;7.40;79.50;;;;;;5066128;28;20217;-85
2021/04/18 09:29:53;;;;;;;21.23;18.93;;;7.40;79.90;;;;;;5062512;28;20225;-85
2021/04/18 09:32:21;;;;;;;22.10;18.87;;;7.40;79.70;;;;;;5059757;28;20221;-87
2021/04/18 09:34:48;;;;;;;21.77;18.40;;;7.70;79.90;;;;;;5069865;28;20212;-84
2021/04/18 09:37:22;;;;;;;20.70;17.73;;;7.90;77.90;;;;;;5069322;28;20605;-83
2021/04/18 09:39:56;;;;;;;20.97;18.27;;;7.90;76.70;;;;;;5067299;28;20205;-85
2021/04/18 09:42:24;;;;;;;19.80;17.70;;;8.00;76.70;;;;;;5068554;28;20228;-84
2021/04/18 09:44:52;;;;;;;19.67;17.60;;;8.20;75.90;;;;;;5064402;28;20202;-82
2021/04/18 09:47:23;;;;;;;19.53;17.43;;;8.30;73.20;;;;;;5071688;28;20225;-86
2021/04/18 09:49:55;;;;;;;18.47;16.43;;;8.60;73.50;;;;;;5070641;28;20505;-83
2021/04/18 09:52:32;;;;;;;18.65;16.13;;;8.90;69.90;;;;;;5071620;28;20220;-83
2021/04/18 09:55:10;;;;;;;18.38;16.38;;;9.10;70.70;;;;;;5074194;28;20193;-83
2021/04/18 09:57:43;;;;;;;21.48;16.85;;;9.50;65.50;;;;;;5066947;28;20197;-84
2021/04/18 10:00:15;;;;;;;18.98;16.98;;;9.90;64.00;;;;;;5068413;28;20908;-84
2021/04/18 10:02:42;;;;;;;17.83;16.02;;;9.70;60.70;;;;;;5070755;28;20202;-84
2021/04/18 10:05:12;;;;;;;18.25;16.35;;;9.90;62.90;;;;;;5071694;28;20264;-83
2021/04/18 10:07:38;;;;;;;18.25;16.35;;;10.20;60.40;;;;;;5070700;28;20637;-84
2021/04/18 10:10:06;;;;;;;17.60;15.70;;;10.10;58.70;;;;;;5072744;28;20220;-83
2021/04/18 10:12:47;;;;;;;17.30;15.50;;;9.90;59.80;;;;;;5071399;28;20194;-83
2021/04/18 10:15:14;;;;;;;17.73;15.90;;;9.90;61.00;;;;;;5070823;28;20201;-83
2021/04/18 10:17:40;;;;;;;18.23;16.20;;;9.80;59.60;;;;;;5078597;28;20624;-83
2021/04/18 10:20:09;;;;;;;17.38;15.60;;;10.00;57.10;;;;;;5079774;28;20498;-84
2021/04/18 10:22:36;;;;;;;18.15;16.33;;;10.30;56.50;;;;;;5074933;28;20582;-87
2021/04/18 10:25:08;;;;;;;17.73;15.85;;;10.10;55.70;;;;;;5074316;28;20212;-83
2021/04/18 10:27:35;;;;;;;16.60;14.82;;;9.80;60.00;;;;;;5070906;28;20210;-84
2021/04/18 10:30:05;;;;;;;17.15;15.32;;;9.60;59.60;;;;;;5073324;28;20756;-88
2021/04/18 10:32:31;;;;;;;18.25;16.35;;;9.40;61.80;;;;;;5073840;28;20657;-84
2021/04/18 10:34:57;;;;;;;21.15;17.35;;;9.70;62.20;;;;;;5073467;28;20300;-83
2021/04/18 10:37:28;;;;;;;18.30;16.38;;;9.80;60.00;;;;;;5071086;28;20212;-84
2021/04/18 10:39:55;;;;;;;18.17;16.30;;;9.80;59.20;;;;;;5075133;28;20249;-85
2021/04/18 10:42:21;;;;;;;18.80;16.80;;;10.10;57.70;;;;;;5080196;28;20224;-84
2021/04/18 10:44:47;;;;;;;18.58;16.58;;;10.10;56.40;;;;;;5084775;28;20551;-84
2021/04/18 10:47:41;;;;;;;20.65;18.00;;;10.30;56.90;;;;;;5085687;28;20264;-85
2021/04/18 10:50:08;;;;;;;21.52;19.30;;;10.50;55.40;;;;;;5082477;28;20210;-84
2021/04/18 10:52:35;;;;;;;21.38;19.05;;;10.40;55.70;;;;;;5074909;28;20294;-84
2021/04/18 10:55:02;;;;;;;21.83;19.23;;;10.10;56.30;;;;;;5074617;28;20201;-87
2021/04/18 10:57:42;;;;;;;21.08;18.13;;;10.00;58.40;;;;;;5076379;28;20201;-83
2021/04/18 11:00:10;;;;;;;19.85;17.58;;;10.10;57.20;;;;;;5067940;28;20193;-84
2021/04/18 11:02:36;;;;;;;18.40;16.30;;;10.00;56.70;;;;;;5072191;28;20201;-87
2021/04/18 11:05:03;;;;;;;19.17;16.23;;;10.10;55.50;;;;;;5066796;28;20208;-85
2021/04/18 11:07:32;;;;;;;17.98;16.08;;;10.30;54.70;;;;;;5070180;28;20292;-83
2021/04/18 11:09:59;;;;;;;18.35;16.35;;;10.50;53.60;;;;;;5068058;28;20232;-82
2021/04/18 11:12:25;;;;;;;17.13;15.32;;;10.80;52.30;;;;;;5077419;28;20198;-82
2021/04/18 11:14:52;;;;;;;20.67;15.70;;;10.70;53.10;;;;;;5081516;28;20198;-84
2021/04/18 11:20:41;;;;;;;15.85;14.18;;;10.00;51.00;;;;;;5083091;28;20208;-83
2021/04/18 11:23:11;;;;;;;17.08;15.38;;;9.70;55.90;;;;;;5067641;28;20269;-87
2021/04/18 11:25:38;;;;;;;17.52;15.02;;;10.00;55.90;;;;;;5067970;28;20213;-87
2021/04/18 11:28:39;;;;;;;16.38;14.43;;;10.00;55.50;;;;;;5079983;28;20249;-85
2021/04/18 11:31:08;;;;;;;18.35;16.45;;;10.10;55.30;;;;;;5143989;22;20256;-83
2021/04/18 11:33:36;;;;;;;15.63;14.10;;;10.10;53.70;;;;;;5064835;28;20206;-84
2021/04/18 11:36:06;;;;;;;16.55;14.80;;;10.00;55.20;;;;;;5063631;28;20226;-86
2021/04/18 11:38:32;;;;;;;17.15;15.30;;;10.00;56.50;;;;;;5057491;28;20195;-82
2021/04/18 11:41:00;;;;;;;17.30;14.68;;;9.70;56.90;;;;;;5051843;28;20282;-84
2021/04/18 11:43:26;;;;;;;18.23;16.15;;;9.60;59.50;;;;;;5050771;28;20209;-83
2021/04/18 11:45:55;;;;;;;18.30;16.30;;;9.60;60.00;;;;;;5045363;28;20233;-85
2021/04/18 11:48:22;;;;;;;19.45;17.33;;;9.20;60.10;;;;;;5056625;28;20285;-83
2021/04/18 11:50:48;;;;;;;18.10;16.20;;;8.80;63.20;;;;;;5057250;28;20221;-81
2021/04/18 11:53:16;;;;;;;18.05;16.13;;;8.80;64.60;;;;;;5055592;28;20198;-84
2021/04/18 11:55:42;;;;;;;18.05;16.15;;;9.00;64.70;;;;;;5060924;28;20702;-83
2021/04/18 11:58:11;;;;;;;18.45;16.40;;;9.20;64.40;;;;;;5055148;28;20202;-81
2021/04/18 12:00:38;;;;;;;17.85;15.95;;;9.40;60.90;;;;;;5056186;28;20225;-82
2021/04/18 12:03:05;;;;;;;17.95;16.08;;;9.60;60.30;;;;;;5062583;28;20202;-83
2021/04/18 12:05:32;;;;;;;18.65;16.25;;;9.50;60.20;;;;;;5054126;28;20270;-83
2021/04/18 12:07:58;;;;;;;18.00;16.10;;;9.30;61.10;;;;;;5049175;28;20206;-83
2021/04/18 12:10:26;;;;;;;18.38;16.23;;;9.00;59.90;;;;;;5065122;28;20232;-81
2021/04/18 12:12:52;;;;;;;18.60;16.60;;;8.90;61.70;;;;;;5066303;28;20189;-81
2021/04/18 12:15:19;;;;;;;18.63;16.40;;;9.00;61.50;;;;;;5053502;28;20232;-81
2021/04/18 12:17:46;;;;;;;18.83;15.88;;;9.30;62.00;;;;;;5042340;28;20207;-81
2021/04/18 12:20:14;;;;;;;18.38;16.38;;;9.50;58.70;;;;;;5055593;28;20216;-83
2021/04/18 12:22:41;;;;;;;17.77;15.98;;;9.60;59.30;;;;;;5053145;28;20550;-82
2021/04/18 12:25:10;;;;;;;17.85;15.73;;;9.90;58.20;;;;;;5053280;28;20224;-81
2021/04/18 12:27:36;;;;;;;17.13;15.38;;;10.00;54.70;;;;;;5049330;28;20197;-81
2021/04/18 12:30:04;;;;;;;18.55;16.63;;;10.20;54.70;;;;;;5055657;28;20225;-84
2021/04/18 12:32:31;;;;;;;17.33;15.63;;;10.30;53.40;;;;;;5052507;28;20221;-81
2021/04/18 12:34:57;;;;;;;17.88;15.98;;;10.30;52.60;;;;;;5059529;28;20201;-82
2021/04/18 12:37:26;;;;;;;17.98;16.08;;;10.40;50.70;;;;;;5055678;28;20213;-81
2021/04/18 12:39:52;;;;;;;17.60;15.70;;;10.00;51.40;;;;;;5056784;28;20228;-81
2021/04/18 12:42:19;;;;;;;18.10;16.27;;;9.70;54.20;;;;;;5049692;28;20218;-82